Time;durP1;ratioP1;P1;durP2;ratioP2;P2;SDS_P1;SDS_P2;PMS_P1;PMS_P2;Temp;Humidity;BMP_temperature;BMP_pressure;BME280_temperature;BME280_humidity;BME280_pressure;Samples;Min_cycle;Max_cycle;Signal;HPM_P1;HPM_P2
2024/01/23 00:01:12;;;;;;;;;;;;;;;-144.99;100.00;67352.69;5087446;28;19916;-81
2024/01/23 00:03:37;;;;;;;;;;;;;;;-144.99;100.00;67352.69;5086945;28;19978;-81
2024/01/23 00:06:02;;;;;;;;;;;;;;;-144.99;100.00;67352.69;5088165;28;19916;-81
2024/01/23 00:08:28;;;;;;;;;;;;;;;-144.99;100.00;67352.69;5087084;28;19927;-81
2024/01/23 00:10:53;;;;;;;;;;;;;;;-144.99;100.00;67352.69;5090358;28;19919;-81
2024/01/23 00:13:19;;;;;;;;;;;;;;;-144.99;100.00;67352.69;5085442;28;20004;-81
2024/01/23 00:15:44;;;;;;;;;;;;;;;-144.99;100.00;67352.69;5088743;28;19969;-81
2024/01/23 00:18:09;;;;;;;;;;;;;;;-144.99;100.00;67352.69;5090623;28;19947;-81
2024/01/23 00:20:34;;;;;;;;;;;;;;;-144.99;100.00;67352.69;5091524;28;19923;-81
2024/01/23 00:23:00;;;;;;;;;;;;;;;-144.99;100.00;67352.69;5083419;28;19916;-80
2024/01/23 00:25:25;;;;;;;;;;;;;;;-144.99;100.00;67352.69;5091776;28;19916;-81
2024/01/23 00:27:51;;;;;;;;;;;;;;;-144.99;100.00;67352.69;5087565;28;19918;-81
2024/01/23 00:30:17;;;;;;;;;;;;;;;-144.99;100.00;67352.69;5079865;28;20003;-81
2024/01/23 00:32:42;;;;;;;;;;;;;;;-144.99;100.00;67352.69;5088331;28;19948;-81
2024/01/23 00:35:07;;;;;;;;;;;;;;;-144.99;100.00;67352.69;5089647;28;19912;-81
2024/01/23 00:37:33;;;;;;;;;;;;;;;-144.99;100.00;67352.69;5089561;28;19912;-81
2024/01/23 00:39:59;;;;;;;;;;;;;;;-144.99;100.00;67352.69;5085927;28;19913;-81
2024/01/23 00:42:25;;;;;;;;;;;;;;;-144.99;100.00;67352.69;5084811;28;20397;-81
2024/01/23 00:44:51;;;;;;;;;;;;;;;-144.99;100.00;67352.69;5093289;28;19916;-81
2024/01/23 00:47:16;;;;;;;;;;;;;;;-144.99;100.00;67352.69;5085424;28;19918;-81
2024/01/23 00:49:41;;;;;;;;;;;;;;;-144.99;100.00;67352.69;5084731;28;20285;-81
2024/01/23 00:52:06;;;;;;;;;;;;;;;-144.99;100.00;67352.69;5081391;28;19912;-81
2024/01/23 00:54:32;;;;;;;;;;;;;;;-144.99;100.00;67352.69;5086434;28;19912;-80
2024/01/23 00:56:57;;;;;;;;;;;;;;;-144.99;100.00;67352.69;5084530;28;20409;-81
2024/01/23 00:59:22;;;;;;;;;;;;;;;-144.99;100.00;67352.69;5084610;28;19912;-81
2024/01/23 01:01:47;;;;;;;;;;;;;;;-144.99;100.00;67352.69;5086643;28;20015;-81
2024/01/23 01:04:13;;;;;;;;;;;;;;;-144.99;100.00;67352.69;5086440;28;19999;-80
2024/01/23 01:06:38;;;;;;;;;;;;;;;-144.99;100.00;67352.69;5085126;28;20019;-80
2024/01/23 01:09:03;;;;;;;;;;;;;;;-144.99;100.00;67352.69;5082882;28;20281;-81
2024/01/23 01:11:28;;;;;;;;;;;;;;;-144.99;100.00;67352.69;5082786;28;19912;-80
2024/01/23 01:13:54;;;;;;;;;;;;;;;-144.99;100.00;67352.69;5087526;28;20397;-80
2024/01/23 01:16:19;;;;;;;;;;;;;;;-144.99;100.00;67352.69;5086153;28;19912;-80
2024/01/23 01:18:44;;;;;;;;;;;;;;;-144.99;100.00;67352.69;5085451;28;19923;-80
2024/01/23 01:21:09;;;;;;;;;;;;;;;-144.99;100.00;67352.69;5084012;28;19920;-81
2024/01/23 01:23:35;;;;;;;;;;;;;;;-144.99;100.00;67352.69;5083066;28;19919;-81
2024/01/23 01:26:01;;;;;;;;;;;;;;;-144.99;100.00;67352.69;5086164;28;19923;-81
2024/01/23 01:28:26;;;;;;;;;;;;;;;-144.99;100.00;67352.69;5078189;28;19913;-81
2024/01/23 01:30:51;;;;;;;;;;;;;;;-144.99;100.00;67352.69;5092085;28;19912;-81
2024/01/23 01:33:17;;;;;;;;;;;;;;;-144.99;100.00;67352.69;5082404;28;19920;-81
2024/01/23 01:35:42;;;;;;;;;;;;;;;-144.99;100.00;67352.69;5084380;28;19920;-81
2024/01/23 01:38:07;;;;;;;;;;;;;;;-144.99;100.00;67352.69;5085773;28;20336;-81
2024/01/23 01:40:32;;;;;;;;;;;;;;;-144.99;100.00;67352.69;5084845;28;19918;-81
2024/01/23 01:42:58;;;;;;;;;;;;;;;-144.99;100.00;67352.69;5082326;28;20006;-81
2024/01/23 01:45:23;;;;;;;;;;;;;;;-144.99;100.00;67352.69;5082591;28;20044;-81
2024/01/23 01:47:50;;;;;;;;;;;;;;;-144.99;100.00;67352.69;5084319;28;20000;-81
2024/01/23 01:50:15;;;;;;;;;;;;;;;-144.99;100.00;67352.69;5082038;28;20370;-81
2024/01/23 01:52:41;;;;;;;;;;;;;;;-144.99;100.00;67352.69;5082283;28;19919;-81
2024/01/23 01:55:08;;;;;;;;;;;;;;;-144.99;100.00;67352.69;5081927;28;19912;-81
2024/01/23 01:57:35;;;;;;;;;;;;;;;-144.99;100.00;67352.69;5083521;28;19939;-81
2024/01/23 02:00:01;;;;;;;;;;;;;;;-144.99;100.00;67352.69;5085359;28;19919;-81
2024/01/23 02:02:26;;;;;;;;;;;;;;;-144.99;100.00;67352.69;5085339;28;19916;-80
2024/01/23 02:04:51;;;;;;;;;;;;;;;-144.99;100.00;67352.69;5081732;28;19939;-81
2024/01/23 02:07:17;;;;;;;;;;;;;;;-144.99;100.00;67352.69;5080293;28;20391;-81
2024/01/23 02:09:42;;;;;;;;;;;;;;;-144.99;100.00;67352.69;5076927;28;20441;-80
2024/01/23 02:12:08;;;;;;;;;;;;;;;-144.99;100.00;67352.69;5084981;28;19959;-81
2024/01/23 02:14:33;;;;;;;;;;;;;;;-144.99;100.00;67352.69;5075947;28;19999;-81
2024/01/23 02:16:58;;;;;;;;;;;;;;;-144.99;100.00;67352.69;5072794;28;19989;-81
2024/01/23 02:19:25;;;;;;;;;;;;;;;-144.99;100.00;67352.69;5081412;28;20062;-81
2024/01/23 02:21:50;;;;;;;;;;;;;;;-144.99;100.00;67352.69;5082628;28;20386;-81
2024/01/23 02:24:16;;;;;;;;;;;;;;;-144.99;100.00;67352.69;5080832;28;20010;-81
2024/01/23 02:26:41;;;;;;;;;;;;;;;-144.99;100.00;67352.69;5082966;28;19916;-81
2024/01/23 02:29:06;;;;;;;;;;;;;;;-144.99;100.00;67352.69;5086138;28;20424;-81
2024/01/23 02:31:31;;;;;;;;;;;;;;;-144.99;100.00;67352.69;5085819;28;19919;-81
2024/01/23 02:33:56;;;;;;;;;;;;;;;-144.99;100.00;67352.69;5080951;28;19912;-81
2024/01/23 02:36:22;;;;;;;;;;;;;;;-144.99;100.00;67352.69;5087250;28;19951;-81
2024/01/23 02:38:47;;;;;;;;;;;;;;;-144.99;100.00;67352.69;5075909;28;19956;-81
2024/01/23 02:41:12;;;;;;;;;;;;;;;-144.99;100.00;67352.69;5084125;28;20006;-81
2024/01/23 02:43:37;;;;;;;;;;;;;;;-144.99;100.00;67352.69;5075742;28;19958;-80
2024/01/23 02:46:03;;;;;;;;;;;;;;;-144.99;100.00;67352.69;5084258;28;19916;-81
2024/01/23 02:48:28;;;;;;;;;;;;;;;-144.99;100.00;67352.69;5084051;28;19935;-81
2024/01/23 02:50:53;;;;;;;;;;;;;;;-144.99;100.00;67352.69;5083797;28;19965;-81
2024/01/23 02:53:19;;;;;;;;;;;;;;;-144.99;100.00;67352.69;5083760;28;19973;-81
2024/01/23 02:55:44;;;;;;;;;;;;;;;-144.99;100.00;67352.69;5073529;28;19916;-81
2024/01/23 02:58:10;;;;;;;;;;;;;;;-144.99;100.00;67352.69;5081826;28;19912;-80
2024/01/23 03:00:37;;;;;;;;;;;;;;;-144.99;100.00;67352.69;5081028;28;20025;-81
2024/01/23 03:03:03;;;;;;;;;;;;;;;-144.99;100.00;67352.69;5084683;28;19935;-81
2024/01/23 03:05:28;;;;;;;;;;;;;;;-144.99;100.00;67352.69;5083268;28;20377;-81
2024/01/23 03:07:53;;;;;;;;;;;;;;;-144.99;100.00;67352.69;5083226;28;20006;-81
2024/01/23 03:10:19;;;;;;;;;;;;;;;-144.99;100.00;67352.69;5084298;28;19912;-80
2024/01/23 03:12:45;;;;;;;;;;;;;;;-144.99;100.00;67352.69;5074942;28;19916;-81
2024/01/23 03:15:11;;;;;;;;;;;;;;;-144.99;100.00;67352.69;5086798;28;19912;-81
2024/01/23 03:17:37;;;;;;;;;;;;;;;-144.99;100.00;67352.69;5080705;28;19912;-80
2024/01/23 03:20:02;;;;;;;;;;;;;;;-144.99;100.00;67352.69;5078371;28;19912;-81
2024/01/23 03:22:27;;;;;;;;;;;;;;;-144.99;100.00;67352.69;5084089;28;19912;-80
2024/01/23 03:24:53;;;;;;;;;;;;;;;-144.99;100.00;67352.69;5077088;28;19916;-81
2024/01/23 03:27:18;;;;;;;;;;;;;;;-144.99;100.00;67352.69;5084882;28;19912;-81
2024/01/23 03:29:44;;;;;;;;;;;;;;;-144.99;100.00;67352.69;5083378;28;20353;-80
2024/01/23 03:32:10;;;;;;;;;;;;;;;-144.99;100.00;67352.69;5081964;28;20050;-80
2024/01/23 03:34:35;;;;;;;;;;;;;;;-144.99;100.00;67352.69;5081406;28;19990;-81
2024/01/23 03:37:01;;;;;;;;;;;;;;;-144.99;100.00;67352.69;5085486;28;20339;-81
2024/01/23 03:39:26;;;;;;;;;;;;;;;-144.99;100.00;67352.69;5085295;28;19913;-80
2024/01/23 03:41:51;;;;;;;;;;;;;;;-144.99;100.00;67352.69;5080805;28;19912;-81
2024/01/23 03:44:17;;;;;;;;;;;;;;;-144.99;100.00;67352.69;5080515;28;19916;-81
2024/01/23 03:46:42;;;;;;;;;;;;;;;-144.99;100.00;67352.69;5081845;28;19916;-81
2024/01/23 03:49:07;;;;;;;;;;;;;;;-144.99;100.00;67352.69;5085109;28;19916;-81
2024/01/23 03:51:32;;;;;;;;;;;;;;;-144.99;100.00;67352.69;5084513;28;19919;-81
2024/01/23 03:53:57;;;;;;;;;;;;;;;-144.99;100.00;67352.69;5081581;28;19912;-80
2024/01/23 03:56:23;;;;;;;;;;;;;;;-144.99;100.00;67352.69;5081911;28;20259;-80
2024/01/23 03:58:48;;;;;;;;;;;;;;;-144.99;100.00;67352.69;5080392;28;19912;-81
2024/01/23 04:01:13;;;;;;;;;;;;;;;-144.99;100.00;67352.69;5080107;28;19924;-81
2024/01/23 04:03:38;;;;;;;;;;;;;;;-144.99;100.00;67352.69;5082714;28;20384;-81
2024/01/23 04:06:04;;;;;;;;;;;;;;;-144.99;100.00;67352.69;5084891;28;20508;-82
2024/01/23 04:08:29;;;;;;;;;;;;;;;-144.99;100.00;67352.69;5084150;28;19919;-81
2024/01/23 04:10:57;;;;;;;;;;;;;;;-144.99;100.00;67352.69;5066976;28;19920;-81
2024/01/23 04:13:22;;;;;;;;;;;;;;;-144.99;100.00;67352.69;5083386;28;20277;-81
2024/01/23 04:15:47;;;;;;;;;;;;;;;-144.99;100.00;67352.69;5082427;28;19912;-81
2024/01/23 04:18:13;;;;;;;;;;;;;;;-144.99;100.00;67352.69;5081291;28;19912;-81
2024/01/23 04:20:40;;;;;;;;;;;;;;;-144.99;100.00;67352.69;5081476;28;19962;-81
2024/01/23 04:23:05;;;;;;;;;;;;;;;-144.99;100.00;67352.69;5086994;28;19916;-81
2024/01/23 04:25:30;;;;;;;;;;;;;;;-144.99;100.00;67352.69;5088365;28;19916;-82
2024/01/23 04:27:57;;;;;;;;;;;;;;;-144.99;100.00;67352.69;5085259;28;19912;-81
2024/01/23 04:30:22;;;;;;;;;;;;;;;-144.99;100.00;67352.69;5083805;28;19937;-81
2024/01/23 04:32:47;;;;;;;;;;;;;;;-144.99;100.00;67352.69;5084509;28;19915;-81
2024/01/23 04:35:12;;;;;;;;;;;;;;;-144.99;100.00;67352.69;5083365;28;20378;-81
2024/01/23 04:37:38;;;;;;;;;;;;;;;-144.99;100.00;67352.69;5084669;28;19919;-81
2024/01/23 04:40:07;;;;;;;;;;;;;;;-144.99;100.00;67352.69;5077077;28;19916;-81
2024/01/23 04:42:32;;;;;;;;;;;;;;;-144.99;100.00;67352.69;5084462;28;19919;-81
2024/01/23 04:44:58;;;;;;;;;;;;;;;-144.99;100.00;67352.69;5096442;28;20292;-81
2024/01/23 04:47:23;;;;;;;;;;;;;;;-144.99;100.00;67352.69;5078996;28;19917;-81
2024/01/23 04:49:48;;;;;;;;;;;;;;;-144.99;100.00;67352.69;5086766;28;20590;-81
2024/01/23 04:52:13;;;;;;;;;;;;;;;-144.99;100.00;67352.69;5094826;28;20361;-81
2024/01/23 04:54:41;;;;;;;;;;;;;;;-144.99;100.00;67352.69;5096481;28;19945;-81
2024/01/23 04:57:06;;;;;;;;;;;;;;;-144.99;100.00;67352.69;5086611;28;19912;-81
2024/01/23 04:59:31;;;;;;;;;;;;;;;-144.99;100.00;67352.69;5086084;28;19912;-81
2024/01/23 05:01:57;;;;;;;;;;;;;;;-144.99;100.00;67352.69;5087425;28;19916;-81
2024/01/23 05:04:22;;;;;;;;;;;;;;;-144.99;100.00;67352.69;5080266;28;19970;-81
2024/01/23 05:06:47;;;;;;;;;;;;;;;-144.99;100.00;67352.69;5085487;28;20084;-81
2024/01/23 05:09:12;;;;;;;;;;;;;;;-144.99;100.00;67352.69;5090024;28;19923;-81
2024/01/23 05:11:37;;;;;;;;;;;;;;;-144.99;100.00;67352.69;5082577;28;20400;-81
2024/01/23 05:14:03;;;;;;;;;;;;;;;-144.99;100.00;67352.69;5088415;28;19943;-81
2024/01/23 05:16:28;;;;;;;;;;;;;;;-144.99;100.00;67352.69;5078003;28;20365;-81
2024/01/23 05:18:53;;;;;;;;;;;;;;;-144.99;100.00;67352.69;5087334;28;19965;-81
2024/01/23 05:21:19;;;;;;;;;;;;;;;-144.99;100.00;67352.69;5079045;28;20408;-81
2024/01/23 05:23:44;;;;;;;;;;;;;;;-144.99;100.00;67352.69;5074952;28;19956;-81
2024/01/23 05:26:09;;;;;;;;;;;;;;;-144.99;100.00;67352.69;5088109;28;19922;-81
2024/01/23 05:28:35;;;;;;;;;;;;;;;-144.99;100.00;67352.69;5094003;28;20010;-81
2024/01/23 05:31:00;;;;;;;;;;;;;;;-144.99;100.00;67352.69;5095200;28;19912;-81
2024/01/23 05:33:25;;;;;;;;;;;;;;;-144.99;100.00;67352.69;5087178;28;19912;-81
2024/01/23 05:35:50;;;;;;;;;;;;;;;-144.99;100.00;67352.69;5074933;28;19912;-81
2024/01/23 05:38:15;;;;;;;;;;;;;;;-144.99;100.00;67352.69;5075196;28;19920;-81
2024/01/23 05:40:41;;;;;;;;;;;;;;;-144.99;100.00;67352.69;5075013;28;19913;-81
2024/01/23 05:43:06;;;;;;;;;;;;;;;-144.99;100.00;67352.69;5088362;28;19913;-81
2024/01/23 05:45:31;;;;;;;;;;;;;;;-144.99;100.00;67352.69;5075015;28;19928;-81
2024/01/23 05:47:56;;;;;;;;;;;;;;;-144.99;100.00;67352.69;5073720;28;19912;-81
2024/01/23 05:50:22;;;;;;;;;;;;;;;-144.99;100.00;67352.69;5081578;28;19919;-81
2024/01/23 05:52:47;;;;;;;;;;;;;;;-144.99;100.00;67352.69;5083981;28;19912;-81
2024/01/23 05:55:12;;;;;;;;;;;;;;;-144.99;100.00;67352.69;5078995;28;19912;-81
2024/01/23 05:57:37;;;;;;;;;;;;;;;-144.99;100.00;67352.69;5082850;28;19951;-81
2024/01/23 06:00:05;;;;;;;;;;;;;;;-144.99;100.00;67352.69;5090031;28;19912;-81
2024/01/23 06:02:31;;;;;;;;;;;;;;;-144.99;100.00;67352.69;5091156;28;19916;-81
2024/01/23 06:04:56;;;;;;;;;;;;;;;-144.99;100.00;67352.69;5076658;28;19923;-81
2024/01/23 06:07:21;;;;;;;;;;;;;;;-144.99;100.00;67352.69;5086296;28;19912;-81
2024/01/23 06:09:46;;;;;;;;;;;;;;;-144.99;100.00;67352.69;5084735;28;19913;-81
2024/01/23 06:12:11;;;;;;;;;;;;;;;-144.99;100.00;67352.69;5079786;28;19913;-81
2024/01/23 06:14:37;;;;;;;;;;;;;;;-144.99;100.00;67352.69;5090437;28;19918;-82
2024/01/23 06:17:03;;;;;;;;;;;;;;;-144.99;100.00;67352.69;5081309;28;19918;-81
2024/01/23 06:19:28;;;;;;;;;;;;;;;-144.99;100.00;67352.69;5080824;28;19912;-82
2024/01/23 06:21:53;;;;;;;;;;;;;;;-144.99;100.00;67352.69;5076940;28;20366;-81
2024/01/23 06:24:19;;;;;;;;;;;;;;;-144.99;100.00;67352.69;5085365;28;19912;-81
2024/01/23 06:26:44;;;;;;;;;;;;;;;-144.99;100.00;67352.69;5093967;28;19920;-81
2024/01/23 06:29:09;;;;;;;;;;;;;;;-144.99;100.00;67352.69;5083800;28;19919;-81
2024/01/23 06:31:34;;;;;;;;;;;;;;;-144.99;100.00;67352.69;5085938;28;20296;-82
2024/01/23 06:34:01;;;;;;;;;;;;;;;-144.99;100.00;67352.69;5093030;28;19912;-81
2024/01/23 06:36:26;;;;;;;;;;;;;;;-144.99;100.00;67352.69;5079213;28;20003;-81
2024/01/23 06:38:51;;;;;;;;;;;;;;;-144.99;100.00;67352.69;5081390;28;20398;-81
2024/01/23 06:41:16;;;;;;;;;;;;;;;-144.99;100.00;67352.69;5088179;28;20436;-81
2024/01/23 06:43:41;;;;;;;;;;;;;;;-144.99;100.00;67352.69;5084519;28;20332;-80
2024/01/23 06:46:07;;;;;;;;;;;;;;;-144.99;100.00;67352.69;5082673;28;20003;-82
2024/01/23 06:48:32;;;;;;;;;;;;;;;-144.99;100.00;67352.69;5083845;28;20321;-80
2024/01/23 06:50:57;;;;;;;;;;;;;;;-144.99;100.00;67352.69;5084768;28;20498;-81
2024/01/23 06:53:22;;;;;;;;;;;;;;;-144.99;100.00;67352.69;5077068;28;19913;-81
2024/01/23 06:55:48;;;;;;;;;;;;;;;-144.99;100.00;67352.69;5093540;28;19916;-81
2024/01/23 06:58:13;;;;;;;;;;;;;;;-144.99;100.00;67352.69;5086475;28;20363;-81
2024/01/23 07:00:39;;;;;;;;;;;;;;;-144.99;100.00;67352.69;5091659;28;20000;-81
2024/01/23 07:03:05;;;;;;;;;;;;;;;-144.99;100.00;67352.69;5085544;28;19916;-81
2024/01/23 07:05:32;;;;;;;;;;;;;;;-144.99;100.00;67352.69;5092194;28;20279;-81
2024/01/23 07:07:58;;;;;;;;;;;;;;;-144.99;100.00;67352.69;5092624;28;19962;-80
2024/01/23 07:10:23;;;;;;;;;;;;;;;-144.99;100.00;67352.69;5084753;28;19959;-81
2024/01/23 07:12:48;;;;;;;;;;;;;;;-144.99;100.00;67352.69;5091922;28;19912;-81
2024/01/23 07:15:13;;;;;;;;;;;;;;;-144.99;100.00;67352.69;5085519;28;19912;-81
2024/01/23 07:17:39;;;;;;;;;;;;;;;-144.99;100.00;67352.69;5092954;28;20357;-80
2024/01/23 07:20:05;;;;;;;;;;;;;;;-144.99;100.00;67352.69;5085871;28;19947;-80
2024/01/23 07:22:30;;;;;;;;;;;;;;;-144.99;100.00;67352.69;5093233;28;19972;-80
2024/01/23 07:24:55;;;;;;;;;;;;;;;-144.99;100.00;67352.69;5085033;28;19912;-80
2024/01/23 07:27:21;;;;;;;;;;;;;;;-144.99;100.00;67352.69;5085077;28;20373;-80
2024/01/23 07:29:46;;;;;;;;;;;;;;;-144.99;100.00;67352.69;5083479;28;19916;-80
2024/01/23 07:32:11;;;;;;;;;;;;;;;-144.99;100.00;67352.69;5073099;28;19971;-80
2024/01/23 07:34:37;;;;;;;;;;;;;;;-144.99;100.00;67352.69;5084256;28;19912;-80
2024/01/23 07:37:02;;;;;;;;;;;;;;;-144.99;100.00;67352.69;5087168;28;20435;-80
2024/01/23 07:39:28;;;;;;;;;;;;;;;-144.99;100.00;67352.69;5084787;28;19987;-80
2024/01/23 07:41:53;;;;;;;;;;;;;;;-144.99;100.00;67352.69;5083065;28;19958;-81
2024/01/23 07:44:19;;;;;;;;;;;;;;;-144.99;100.00;67352.69;5069666;28;19917;-80
2024/01/23 07:46:44;;;;;;;;;;;;;;;-144.99;100.00;67352.69;5075270;28;19917;-81
2024/01/23 07:49:09;;;;;;;;;;;;;;;-144.99;100.00;67352.69;5081845;28;19950;-81
2024/01/23 07:51:47;;;;;;;;;;;;;;;-144.99;100.00;67352.69;5083964;28;19923;-81
2024/01/23 07:54:12;;;;;;;;;;;;;;;-144.99;100.00;67352.69;5080177;28;19912;-80
2024/01/23 07:56:37;;;;;;;;;;;;;;;-144.99;100.00;67352.69;5086302;28;20357;-80
2024/01/23 07:59:02;;;;;;;;;;;;;;;-144.99;100.00;67352.69;5085537;28;19913;-80
2024/01/23 08:01:28;;;;;;;;;;;;;;;-144.99;100.00;67352.69;5085654;28;19916;-80
2024/01/23 08:03:53;;;;;;;;;;;;;;;-144.99;100.00;67352.69;5088948;28;19916;-81
2024/01/23 08:06:18;;;;;;;;;;;;;;;-144.99;100.00;67352.69;5089958;28;19916;-80
2024/01/23 08:08:44;;;;;;;;;;;;;;;-144.99;100.00;67352.69;5086634;28;19918;-80
2024/01/23 08:11:10;;;;;;;;;;;;;;;-144.99;100.00;67352.69;5085311;28;19995;-81
2024/01/23 08:13:36;;;;;;;;;;;;;;;-144.99;100.00;67352.69;5093097;28;19938;-81
2024/01/23 08:16:01;;;;;;;;;;;;;;;-144.99;100.00;67352.69;5080005;28;20381;-81
2024/01/23 08:18:26;;;;;;;;;;;;;;;-144.99;100.00;67352.69;5087919;28;19912;-81
2024/01/23 08:20:51;;;;;;;;;;;;;;;-144.99;100.00;67352.69;5087377;28;20370;-80
2024/01/23 08:23:17;;;;;;;;;;;;;;;-144.99;100.00;67352.69;5086724;28;20019;-81
2024/01/23 08:25:45;;;;;;;;;;;;;;;-144.99;100.00;67352.69;5085099;28;19912;-81
2024/01/23 08:28:10;;;;;;;;;;;;;;;-144.99;100.00;67352.69;5076041;28;19927;-80
2024/01/23 08:30:35;;;;;;;;;;;;;;;-144.99;100.00;67352.69;5086989;28;19920;-80
2024/01/23 08:33:00;;;;;;;;;;;;;;;-144.99;100.00;67352.69;5092259;28;20274;-80
2024/01/23 08:35:25;;;;;;;;;;;;;;;-144.99;100.00;67352.69;5091407;28;19912;-81
2024/01/23 08:37:51;;;;;;;;;;;;;;;-144.99;100.00;67352.69;5077575;28;19916;-80
2024/01/23 08:40:16;;;;;;;;;;;;;;;-144.99;100.00;67352.69;5078698;28;19912;-81
2024/01/23 08:42:41;;;;;;;;;;;;;;;-144.99;100.00;67352.69;5085566;28;19996;-81
2024/01/23 08:45:08;;;;;;;;;;;;;;;-144.99;100.00;67352.69;5082351;28;19912;-81
2024/01/23 08:47:33;;;;;;;;;;;;;;;-144.99;100.00;67352.69;5086914;28;20018;-80
2024/01/23 08:49:58;;;;;;;;;;;;;;;-144.99;100.00;67352.69;5087975;28;20012;-81
2024/01/23 08:52:24;;;;;;;;;;;;;;;-144.99;100.00;67352.69;5089654;28;19913;-81
2024/01/23 08:54:49;;;;;;;;;;;;;;;-144.99;100.00;67352.69;5087814;28;19920;-81
2024/01/23 08:57:17;;;;;;;;;;;;;;;-144.99;100.00;67352.69;5082392;28;20007;-81
2024/01/23 08:59:43;;;;;;;;;;;;;;;-144.99;100.00;67352.69;5086415;28;19966;-81
2024/01/23 09:02:09;;;;;;;;;;;;;;;-144.99;100.00;67352.69;5095811;28;20297;-81
2024/01/23 09:04:34;;;;;;;;;;;;;;;-144.99;100.00;67352.69;5086782;28;19981;-81
2024/01/23 09:06:59;;;;;;;;;;;;;;;-144.99;100.00;67352.69;5088501;28;19912;-81
2024/01/23 09:09:24;;;;;;;;;;;;;;;-144.99;100.00;67352.69;5096934;28;20405;-81
2024/01/23 09:11:49;;;;;;;;;;;;;;;-144.99;100.00;67352.69;5076560;28;19995;-80
2024/01/23 09:14:15;;;;;;;;;;;;;;;-144.99;100.00;67352.69;5083047;28;19916;-81
2024/01/23 09:16:40;;;;;;;;;;;;;;;-144.99;100.00;67352.69;5087533;28;19919;-81
2024/01/23 09:19:05;;;;;;;;;;;;;;;-144.99;100.00;67352.69;5081970;28;19923;-81
2024/01/23 09:21:30;;;;;;;;;;;;;;;-144.99;100.00;67352.69;5088747;28;19912;-81
2024/01/23 09:23:55;;;;;;;;;;;;;;;-144.99;100.00;67352.69;5087140;28;19917;-81
2024/01/23 09:26:21;;;;;;;;;;;;;;;-144.99;100.00;67352.69;5095664;28;19934;-81
2024/01/23 09:28:46;;;;;;;;;;;;;;;-144.99;100.00;67352.69;5085836;28;19919;-80
2024/01/23 09:31:11;;;;;;;;;;;;;;;-144.99;100.00;67352.69;5076242;28;19912;-80
2024/01/23 09:33:36;;;;;;;;;;;;;;;-144.99;100.00;67352.69;5084963;28;19920;-80
2024/01/23 09:36:03;;;;;;;;;;;;;;;-144.99;100.00;67352.69;5089308;28;19919;-80
2024/01/23 09:38:28;;;;;;;;;;;;;;;-144.99;100.00;67352.69;5087404;28;20304;-80
2024/01/23 09:40:53;;;;;;;;;;;;;;;-144.99;100.00;67352.69;5091266;28;19912;-80
2024/01/23 09:43:22;;;;;;;;;;;;;;;-144.99;100.00;67352.69;5090994;28;20296;-80
2024/01/23 09:45:50;;;;;;;;;;;;;;;-144.99;100.00;67352.69;5087495;28;19912;-80
2024/01/23 09:48:15;;;;;;;;;;;;;;;-144.99;100.00;67352.69;5087861;28;20334;-80
2024/01/23 09:50:41;;;;;;;;;;;;;;;-144.99;100.00;67352.69;5078734;28;19917;-80
2024/01/23 09:53:07;;;;;;;;;;;;;;;-144.99;100.00;67352.69;5082664;28;19999;-80
2024/01/23 09:55:32;;;;;;;;;;;;;;;-144.99;100.00;67352.69;5082826;28;19951;-81
2024/01/23 09:57:58;;;;;;;;;;;;;;;-144.99;100.00;67352.69;5086678;28;19919;-81
2024/01/23 10:00:23;;;;;;;;;;;;;;;-144.99;100.00;67352.69;5086991;28;19912;-81
2024/01/23 10:02:49;;;;;;;;;;;;;;;-144.99;100.00;67352.69;5084791;28;19990;-81
2024/01/23 10:05:16;;;;;;;;;;;;;;;-144.99;100.00;67352.69;5087517;28;19934;-81
2024/01/23 10:07:42;;;;;;;;;;;;;;;-144.99;100.00;67352.69;5091822;28;19912;-81
2024/01/23 10:10:14;;;;;;;;;;;;;;;-144.99;100.00;67352.69;5074904;28;20293;-81
2024/01/23 10:12:40;;;;;;;;;;;;;;;-144.99;100.00;67352.69;5073212;28;20366;-80
2024/01/23 10:15:08;;;;;;;;;;;;;;;-144.99;100.00;67352.69;5081016;28;19916;-81
2024/01/23 10:17:33;;;;;;;;;;;;;;;-144.99;100.00;67352.69;5073622;28;20271;-80
2024/01/23 10:19:58;;;;;;;;;;;;;;;-144.99;100.00;67352.69;5072970;28;19917;-81
2024/01/23 10:22:24;;;;;;;;;;;;;;;-144.99;100.00;67352.69;5080728;28;19912;-82
2024/01/23 10:24:50;;;;;;;;;;;;;;;-144.99;100.00;67352.69;5084252;28;20323;-82
2024/01/23 10:27:15;;;;;;;;;;;;;;;-144.99;100.00;67352.69;5082003;28;19912;-81
2024/01/23 10:29:40;;;;;;;;;;;;;;;-144.99;100.00;67352.69;5057015;23;19970;-82
2024/01/23 10:32:05;;;;;;;;;;;;;;;-144.99;100.00;67352.69;5052198;28;19917;-81
2024/01/23 10:34:31;;;;;;;;;;;;;;;-144.99;100.00;67352.69;5050737;28;19948;-79
2024/01/23 10:36:58;;;;;;;;;;;;;;;-144.99;100.00;67352.69;5053140;28;19975;-81
2024/01/23 10:39:23;;;;;;;;;;;;;;;-144.99;100.00;67352.69;5053084;28;19916;-80
2024/01/23 10:41:51;;;;;;;;;;;;;;;-144.99;100.00;67352.69;5053191;28;19913;-79
2024/01/23 10:44:18;;;;;;;;;;;;;;;-144.99;100.00;67352.69;5053005;28;19917;-80
2024/01/23 10:46:45;;;;;;;;;;;;;;;-144.99;100.00;67352.69;5051941;28;20054;-80
2024/01/23 10:49:11;;;;;;;;;;;;;;;-144.99;100.00;67352.69;5052357;28;19913;-81
2024/01/23 10:51:36;;;;;;;;;;;;;;;-144.99;100.00;67352.69;5053414;28;19913;-80
2024/01/23 10:54:08;;;;;;;;;;;;;;;-144.99;100.00;67352.69;5052663;28;19922;-80
2024/01/23 10:56:44;;;;;;;;;;;;;;;-144.99;100.00;67352.69;5051852;28;19913;-80
2024/01/23 10:59:19;;;;;;;;;;;;;;;-144.99;100.00;67352.69;5051829;28;19917;-80
2024/01/23 11:01:45;;;;;;;;;;;;;;;-144.99;100.00;67352.69;5051877;28;19999;-81
2024/01/23 11:04:11;;;;;;;;;;;;;;;-144.99;100.00;67352.69;5052294;28;20366;-79
2024/01/23 11:06:45;;;;;;;;;;;;;;;-144.99;100.00;67352.69;5053020;28;19913;-81
2024/01/23 11:09:18;;;;;;;;;;;;;;;-144.99;100.00;67352.69;5051960;28;19998;-81
2024/01/23 11:11:46;;;;;;;;;;;;;;;-144.99;100.00;67352.69;5050398;28;19936;-83
2024/01/23 11:14:15;;;;;;;;;;;;;;;-144.99;100.00;67352.69;5051819;28;19919;-79
2024/01/23 11:16:40;;;;;;;;;;;;;;;-144.99;100.00;67352.69;5051732;28;19916;-81
2024/01/23 11:19:05;;;;;;;;;;;;;;;-144.99;100.00;67352.69;5048517;28;20310;-80
2024/01/23 11:21:30;;;;;;;;;;;;;;;-144.99;100.00;67352.69;5051741;28;20430;-80
2024/01/23 11:24:00;;;;;;;;;;;;;;;-144.99;100.00;67352.69;5051833;28;19917;-81
2024/01/23 11:26:26;;;;;;;;;;;;;;;-144.99;100.00;67352.69;5051993;28;19967;-81
2024/01/23 11:29:02;;;;;;;;;;;;;;;-144.99;100.00;67352.69;5048658;28;19931;-79
2024/01/23 11:31:28;;;;;;;;;;;;;;;-144.99;100.00;67352.69;5054177;28;20418;-81
2024/01/23 11:34:13;;;;;;;;;;;;;;;-144.99;100.00;67352.69;5056318;28;19966;-81
2024/01/23 11:36:39;;;;;;;;;;;;;;;-144.99;100.00;67352.69;5055061;28;20303;-81
2024/01/23 11:39:04;;;;;;;;;;;;;;;-144.99;100.00;67352.69;5056687;28;19920;-80
2024/01/23 11:41:29;;;;;;;;;;;;;;;-144.99;100.00;67352.69;5056599;28;19917;-81
2024/01/23 11:44:04;;;;;;;;;;;;;;;-144.99;100.00;67352.69;5055663;28;19917;-79
2024/01/23 11:46:30;;;;;;;;;;;;;;;-144.99;100.00;67352.69;5056598;28;19919;-81
2024/01/23 11:48:55;;;;;;;;;;;;;;;-144.99;100.00;67352.69;5055460;28;20003;-79
2024/01/23 11:51:21;;;;;;;;;;;;;;;-144.99;100.00;67352.69;5056626;28;19916;-79
2024/01/23 11:53:47;;;;;;;;;;;;;;;-144.99;100.00;67352.69;5055682;28;19912;-79
2024/01/23 11:56:12;;;;;;;;;;;;;;;-144.99;100.00;67352.69;5055604;28;20406;-81
2024/01/23 11:58:38;;;;;;;;;;;;;;;-144.99;100.00;67352.69;5056700;28;19913;-81
2024/01/23 12:01:04;;;;;;;;;;;;;;;-144.99;100.00;67352.69;5055427;28;19920;-81
2024/01/23 12:03:29;;;;;;;;;;;;;;;-144.99;100.00;67352.69;5056509;28;19917;-80
2024/01/23 12:05:55;;;;;;;;;;;;;;;-144.99;100.00;67352.69;5054831;28;19913;-80
2024/01/23 12:08:20;;;;;;;;;;;;;;;-144.99;100.00;67352.69;5053329;28;19943;-81
2024/01/23 12:10:46;;;;;;;;;;;;;;;-144.99;100.00;67352.69;5054503;28;20007;-81